This is the latest recevied weather packets stored in our database for station/object KN6CW-3. If no packets are shown the sender has not sent any weather packets the latest 10 day(s).
| Time | Temp. | Humidity | Pressure | Rain* | Wind** | Luminosity | Snow |
|---|---|---|---|---|---|---|---|
| 1778082640 | 13.33° C | 97% | 1006 hPa | 3.05 mm | - | 25 W/m² | - |
| 1778082339 | 13.33° C | 97% | 1006 hPa | 3.05 mm | - | 26 W/m² | - |
| 1778082039 | 13.33° C | 97% | 1006.2 hPa | 2.79 mm | - | 30 W/m² | - |
| 1778081739 | 13.33° C | 97% | 1006.1 hPa | 2.79 mm | - | 39 W/m² | - |
| 1778081438 | 13.33° C | 97% | 1006.2 hPa | 2.54 mm | - | 30 W/m² | - |
| 1778081138 | 13.33° C | 97% | 1006.6 hPa | 2.03 mm | - | 18 W/m² | - |
| 1778080838 | 13.33° C | 97% | 1006.9 hPa | 1.78 mm | - | 23 W/m² | - |
| 1778080537 | 13.33° C | 97% | 1006.7 hPa | 1.78 mm | - | 35 W/m² | - |
| 1778080237 | 13.33° C | 97% | 1006.6 hPa | 1.78 mm | - | 40 W/m² | - |
| 1778079937 | 13.33° C | 97% | 1006.6 hPa | 1.78 mm | - | 26 W/m² | - |
| 1778079636 | 13.33° C | 97% | 1006.5 hPa | 1.78 mm | - | 33 W/m² | - |
| 1778079336 | 13.33° C | 97% | 1006.4 hPa | 1.52 mm | - | 42 W/m² | - |
| 1778079036 | 13.33° C | 97% | 1006.2 hPa | 1.78 mm | - | 33 W/m² | - |
| 1778078736 | 13.33° C | 97% | 1006.4 hPa | 1.52 mm | - | 42 W/m² | - |
| 1778078435 | 13.33° C | 97% | 1006.3 hPa | 1.78 mm | - | 51 W/m² | - |
| 1778078135 | 13.33° C | 97% | 1006.3 hPa | 1.52 mm | - | 56 W/m² | - |
| 1778077835 | 13.33° C | 97% | 1006.2 hPa | 1.52 mm | - | 47 W/m² | - |
| 1778077534 | 13.33° C | 97% | 1006.4 hPa | 1.52 mm | - | 39 W/m² | - |
| 1778077235 | 13.33° C | 96% | 1006.6 hPa | 1.78 mm | - | 58 W/m² | - |
| 1778076934 | 13.33° C | 96% | 1006.7 hPa | 1.52 mm | - | 28 W/m² | - |
| 1778076634 | 13.33° C | 96% | 1006.8 hPa | 1.52 mm | - | 23 W/m² | - |
| 1778076333 | 13.33° C | 96% | 1006.8 hPa | 1.52 mm | - | 32 W/m² | - |
| 1778076033 | 13.33° C | 96% | 1006.8 hPa | 1.52 mm | - | 33 W/m² | - |
| 1778075733 | 13.33° C | 96% | 1006.7 hPa | 1.52 mm | - | 19 W/m² | - |
| 1778075432 | 13.33° C | 96% | 1006.7 hPa | 1.27 mm | - | 30 W/m² | - |
* Rain latest hour (hover to see other rain measurements)
** Current wind speed in m/s (hover to see current wind gust speed)